Time;durP1;ratioP1;P1;durP2;ratioP2;P2;SDS_P1;SDS_P2;PMS_P1;PMS_P2;Temp;Humidity;BMP_temperature;BMP_pressure;BME280_temperature;BME280_humidity;BME280_pressure;Samples;Min_cycle;Max_cycle;Signal;HPM_P1;HPM_P2
2022/01/08 00:00:52;;;;;;;6.13;3.25;;;4.30;99.90;;;;;;5112360;28;20173;-43
2022/01/08 00:03:18;;;;;;;5.40;2.40;;;4.30;99.90;;;;;;5112363;28;20209;-45
2022/01/08 00:05:43;;;;;;;9.73;3.15;;;4.30;99.90;;;;;;5112417;28;20225;-44
2022/01/08 00:08:09;;;;;;;5.05;2.28;;;4.30;99.90;;;;;;5112056;28;20167;-45
2022/01/08 00:10:34;;;;;;;6.75;2.85;;;4.40;99.90;;;;;;5112260;28;20161;-45
2022/01/08 00:13:04;;;;;;;5.22;2.40;;;4.40;99.90;;;;;;5111734;28;20235;-45
2022/01/08 00:15:29;;;;;;;5.53;2.70;;;4.40;99.90;;;;;;5093853;28;20639;-45
2022/01/08 00:17:55;;;;;;;14.00;2.47;;;4.50;99.90;;;;;;5112536;28;20165;-46
2022/01/08 00:20:21;;;;;;;8.57;2.45;;;4.50;99.90;;;;;;5112238;28;20173;-46
2022/01/08 00:22:50;;;;;;;5.40;1.90;;;4.40;99.90;;;;;;5111899;28;20172;-46
2022/01/08 00:25:15;;;;;;;3.28;1.90;;;4.40;99.90;;;;;;5112113;28;20169;-46
2022/01/08 00:27:41;;;;;;;6.40;2.17;;;4.50;99.90;;;;;;5112283;28;20573;-45
2022/01/08 00:30:07;;;;;;;3.47;2.00;;;4.50;99.90;;;;;;5112083;28;20161;-43
2022/01/08 00:32:34;;;;;;;3.63;2.08;;;4.50;99.90;;;;;;5111946;28;20272;-43
2022/01/08 00:35:00;;;;;;;4.13;2.63;;;4.50;99.90;;;;;;5112036;28;20737;-43
2022/01/08 00:37:26;;;;;;;3.70;2.30;;;4.60;99.90;;;;;;5112087;28;20229;-43
2022/01/08 00:39:52;;;;;;;4.53;2.25;;;4.60;99.90;;;;;;5111856;28;20172;-44
2022/01/08 00:42:17;;;;;;;7.20;2.13;;;4.60;99.90;;;;;;5111996;28;20169;-44
2022/01/08 00:44:43;;;;;;;5.20;2.03;;;4.70;99.90;;;;;;5111994;28;20217;-45
2022/01/08 00:47:08;;;;;;;6.03;2.28;;;4.60;99.90;;;;;;5111903;28;20202;-43
2022/01/08 00:49:34;;;;;;;3.50;2.35;;;4.60;99.90;;;;;;5111934;28;20318;-45
2022/01/08 00:51:59;;;;;;;9.40;2.83;;;4.60;99.90;;;;;;5111809;28;20201;-44
2022/01/08 00:54:25;;;;;;;5.28;1.98;;;4.50;99.90;;;;;;5112208;28;20696;-46
2022/01/08 00:56:51;;;;;;;3.20;2.25;;;4.60;99.90;;;;;;5111886;28;20522;-46
2022/01/08 00:59:17;;;;;;;7.63;2.45;;;4.60;99.90;;;;;;5093647;28;20177;-44
2022/01/08 01:01:43;;;;;;;2.63;2.10;;;4.60;99.90;;;;;;5112158;28;20256;-43
2022/01/08 01:04:08;;;;;;;5.68;2.20;;;4.60;99.90;;;;;;5111780;28;20587;-44
2022/01/08 01:06:34;;;;;;;4.18;2.40;;;4.50;99.90;;;;;;5111497;28;20640;-44
2022/01/08 01:08:59;;;;;;;5.07;1.88;;;4.50;99.90;;;;;;5111764;28;20175;-45
2022/01/08 01:11:25;;;;;;;5.82;2.10;;;4.50;99.90;;;;;;5111782;28;20218;-44
2022/01/08 01:13:50;;;;;;;5.82;2.28;;;4.50;99.90;;;;;;5111707;28;20567;-44
2022/01/08 01:16:16;;;;;;;6.90;2.38;;;4.50;99.90;;;;;;5111875;28;20660;-45
2022/01/08 01:18:41;;;;;;;2.65;1.80;;;4.50;99.90;;;;;;5112171;28;20240;-44
2022/01/08 01:21:07;;;;;;;3.40;2.17;;;4.50;99.90;;;;;;5111915;28;20178;-44
2022/01/08 01:23:40;;;;;;;6.05;2.40;;;4.50;99.90;;;;;;5094024;28;20163;-44
2022/01/08 01:26:10;;;;;;;4.05;2.53;;;4.50;99.90;;;;;;5115799;28;20184;-44
2022/01/08 01:29:01;;;;;;;4.15;2.47;;;4.50;99.90;;;;;;5115468;28;20196;-44
2022/01/08 01:47:19;;;;;;;5.28;2.15;;;4.40;99.90;;;;;;5115389;28;20586;-44
2022/01/08 01:49:46;;;;;;;6.72;2.97;;;4.30;99.90;;;;;;5115051;28;20173;-46
2022/01/08 01:52:15;;;;;;;5.60;2.35;;;4.30;99.90;;;;;;5114922;28;20227;-46
2022/01/08 01:54:41;;;;;;;5.65;2.58;;;4.20;99.90;;;;;;5114899;28;20173;-45
2022/01/08 01:57:09;;;;;;;8.23;2.63;;;4.10;99.90;;;;;;5114964;28;20179;-45
2022/01/08 01:59:36;;;;;;;12.15;2.90;;;4.10;99.90;;;;;;5115169;28;20172;-45
2022/01/08 02:02:03;;;;;;;3.33;2.03;;;4.00;99.90;;;;;;5114853;28;20169;-44
2022/01/08 02:04:28;;;;;;;4.85;2.90;;;4.00;99.90;;;;;;5114726;28;20667;-44
2022/01/08 02:06:54;;;;;;;9.45;2.92;;;3.90;99.90;;;;;;5115169;28;20302;-45
2022/01/08 02:09:20;;;;;;;5.40;2.75;;;3.90;99.90;;;;;;5114693;28;20164;-44
2022/01/08 02:11:58;;;;;;;4.18;2.47;;;3.90;99.90;;;;;;5114461;28;20281;-44
2022/01/08 02:14:24;;;;;;;3.97;2.53;;;3.80;99.90;;;;;;5115261;28;20168;-44
2022/01/08 02:16:50;;;;;;;8.82;2.30;;;3.80;99.90;;;;;;5114579;28;20173;-44
2022/01/08 02:19:15;;;;;;;6.90;3.55;;;3.70;99.90;;;;;;5114566;28;20180;-44
2022/01/08 02:21:49;;;;;;;8.45;3.15;;;3.70;99.90;;;;;;5114498;28;20165;-45
2022/01/08 02:24:15;;;;;;;6.28;3.00;;;3.70;99.90;;;;;;5114431;28;20188;-45
2022/01/08 02:26:41;;;;;;;4.68;2.85;;;3.60;99.90;;;;;;5114633;28;20207;-44
2022/01/08 02:29:13;;;;;;;3.78;2.20;;;3.60;99.90;;;;;;5114529;28;20172;-44
2022/01/08 02:31:39;;;;;;;8.32;2.80;;;3.60;99.90;;;;;;5114200;28;20204;-44
2022/01/08 02:34:05;;;;;;;5.03;2.45;;;3.60;99.90;;;;;;5114284;28;20670;-44
2022/01/08 02:36:32;;;;;;;4.03;2.50;;;3.50;99.90;;;;;;5114284;28;20172;-44
2022/01/08 02:38:58;;;;;;;6.00;2.28;;;3.50;99.90;;;;;;5114766;28;20247;-44
2022/01/08 02:41:23;;;;;;;5.10;2.40;;;3.50;99.90;;;;;;5114249;28;20203;-44
2022/01/08 02:43:53;;;;;;;4.53;2.40;;;3.50;99.90;;;;;;5114048;28;20214;-44
2022/01/08 02:46:19;;;;;;;8.45;2.30;;;3.40;99.90;;;;;;5114234;28;20742;-45
2022/01/08 02:48:45;;;;;;;8.75;2.92;;;3.30;99.90;;;;;;5114142;28;20169;-44
2022/01/08 02:51:10;;;;;;;3.90;2.55;;;3.30;99.90;;;;;;5113868;28;20691;-44
2022/01/08 02:53:36;;;;;;;5.47;2.25;;;3.30;99.90;;;;;;5113743;28;20233;-44
2022/01/08 02:56:02;;;;;;;4.22;2.10;;;3.20;99.90;;;;;;5113872;28;20164;-44
2022/01/08 02:58:28;;;;;;;7.75;2.78;;;3.20;99.90;;;;;;5114018;28;20584;-45
2022/01/08 03:00:55;;;;;;;7.32;2.70;;;3.20;99.90;;;;;;5114279;28;20160;-44
2022/01/08 03:03:21;;;;;;;8.07;2.95;;;3.20;99.90;;;;;;5113831;28;20165;-44
2022/01/08 03:05:46;;;;;;;6.10;2.17;;;3.20;99.90;;;;;;5113570;28;20168;-45
2022/01/08 03:08:12;;;;;;;7.15;3.08;;;3.10;99.90;;;;;;5113454;28;20165;-45
2022/01/08 03:10:38;;;;;;;5.15;2.13;;;3.00;99.90;;;;;;5113486;28;20165;-45
2022/01/08 03:13:05;;;;;;;8.10;3.40;;;3.00;99.90;;;;;;5113223;28;20277;-44
2022/01/08 03:15:33;;;;;;;5.68;2.75;;;3.00;99.90;;;;;;5113398;28;20244;-45
2022/01/08 03:17:58;;;;;;;4.88;2.78;;;3.00;99.90;;;;;;5113359;28;20226;-45
2022/01/08 03:20:24;;;;;;;7.22;2.80;;;2.90;99.90;;;;;;5113584;28;20168;-46
2022/01/08 03:22:51;;;;;;;4.15;2.30;;;2.90;99.90;;;;;;5113500;28;20203;-46
2022/01/08 03:25:17;;;;;;;6.43;2.88;;;2.90;99.90;;;;;;5113417;28;20275;-44
2022/01/08 03:27:44;;;;;;;4.00;2.72;;;2.90;99.90;;;;;;5095050;28;20680;-45
2022/01/08 03:30:12;;;;;;;3.85;2.40;;;2.90;99.90;;;;;;5113404;28;20564;-44
2022/01/08 03:32:38;;;;;;;5.55;2.60;;;2.80;99.90;;;;;;5112982;28;20565;-45
2022/01/08 03:35:04;;;;;;;7.25;3.08;;;2.80;99.90;;;;;;5113348;28;20161;-47
2022/01/08 03:37:29;;;;;;;6.43;2.97;;;2.80;99.90;;;;;;5113088;28;20309;-45
2022/01/08 03:39:55;;;;;;;6.55;2.90;;;2.80;99.90;;;;;;5095033;28;20169;-47
2022/01/08 03:42:20;;;;;;;6.88;3.25;;;2.80;99.90;;;;;;5112955;28;20172;-46
2022/01/08 03:44:46;;;;;;;4.85;3.50;;;2.80;99.90;;;;;;5112903;28;20164;-46
2022/01/08 03:49:52;;;;;;;9.20;3.85;;;2.70;99.90;;;;;;5112829;28;20248;-46
2022/01/08 03:52:18;;;;;;;8.18;3.95;;;2.80;99.90;;;;;;5112631;28;20808;-45
2022/01/08 03:54:43;;;;;;;6.97;3.55;;;2.70;99.90;;;;;;5112764;28;20180;-45
2022/01/08 03:57:09;;;;;;;10.30;4.18;;;2.70;99.90;;;;;;5112823;28;20225;-46
2022/01/08 03:59:34;;;;;;;13.13;4.85;;;2.70;99.90;;;;;;5112674;28;20165;-47
2022/01/08 04:02:00;;;;;;;9.60;4.32;;;2.70;99.90;;;;;;5112616;28;20183;-44
2022/01/08 04:04:26;;;;;;;10.93;5.45;;;2.60;99.90;;;;;;5113098;28;20184;-46
2022/01/08 04:06:52;;;;;;;10.05;4.65;;;2.60;99.90;;;;;;5112658;28;20229;-46
2022/01/08 04:09:18;;;;;;;11.70;5.53;;;2.60;99.90;;;;;;5112720;28;20239;-47
2022/01/08 04:11:44;;;;;;;11.85;5.40;;;2.60;99.90;;;;;;5112555;28;20672;-46
2022/01/08 04:14:10;;;;;;;11.23;6.13;;;2.60;99.90;;;;;;5112551;28;20168;-45
2022/01/08 04:16:39;;;;;;;13.70;6.88;;;2.50;99.90;;;;;;5112456;28;20213;-45
2022/01/08 04:19:05;;;;;;;9.30;5.03;;;2.50;99.90;;;;;;5112363;28;20184;-44
2022/01/08 04:24:08;;;;;;;16.95;6.80;;;2.60;99.90;;;;;;5112793;28;20172;-44
2022/01/08 04:26:34;;;;;;;15.73;7.15;;;2.60;99.90;;;;;;5112314;28;20262;-45
2022/01/08 04:28:59;;;;;;;14.48;6.43;;;2.60;99.90;;;;;;5112364;28;20321;-44
2022/01/08 04:31:25;;;;;;;17.42;7.28;;;2.60;99.90;;;;;;5112516;28;20199;-46
2022/01/08 04:33:52;;;;;;;13.52;6.75;;;2.60;99.90;;;;;;5112318;28;20169;-45
2022/01/08 04:36:18;;;;;;;19.50;8.18;;;2.60;99.90;;;;;;5112294;28;20160;-44
2022/01/08 04:38:44;;;;;;;17.85;6.72;;;2.60;99.90;;;;;;5112203;28;20180;-45
2022/01/08 04:41:09;;;;;;;18.58;7.72;;;2.50;99.90;;;;;;5112285;28;20277;-45
2022/01/08 04:43:37;;;;;;;10.50;7.05;;;2.60;99.90;;;;;;5112289;28;20173;-45
2022/01/08 04:46:04;;;;;;;15.05;8.00;;;2.60;99.90;;;;;;5112421;28;20168;-45
2022/01/08 04:48:30;;;;;;;13.68;6.75;;;2.60;99.90;;;;;;5112106;28;20640;-44
2022/01/08 04:50:56;;;;;;;16.40;7.85;;;2.60;99.90;;;;;;5112351;28;20168;-44
2022/01/08 04:53:21;;;;;;;16.58;8.85;;;2.60;99.90;;;;;;5112146;28;20200;-44
2022/01/08 04:55:47;;;;;;;13.77;7.45;;;2.60;99.90;;;;;;5112073;28;20229;-45
2022/01/08 04:58:12;;;;;;;16.95;8.65;;;2.50;99.90;;;;;;5093794;28;20176;-46
2022/01/08 05:00:39;;;;;;;12.80;8.25;;;2.60;99.90;;;;;;5115747;28;20248;-44
2022/01/08 05:03:05;;;;;;;14.18;6.50;;;2.60;99.90;;;;;;5116193;28;20165;-45
2022/01/08 05:05:30;;;;;;;17.20;8.18;;;2.50;99.90;;;;;;5115882;28;20214;-45
2022/01/08 05:07:56;;;;;;;16.77;7.95;;;2.50;99.90;;;;;;5116262;28;20161;-45
2022/01/08 05:10:22;;;;;;;16.98;8.00;;;2.60;99.90;;;;;;5115866;28;20624;-45
2022/01/08 05:12:47;;;;;;;12.38;7.70;;;2.60;99.90;;;;;;5115305;28;20216;-44
2022/01/08 05:15:15;;;;;;;12.48;7.13;;;2.50;99.90;;;;;;5115620;28;20157;-45
2022/01/08 05:17:42;;;;;;;14.40;7.75;;;2.50;99.90;;;;;;5097411;28;20179;-45
2022/01/08 05:20:11;;;;;;;18.52;7.80;;;2.50;99.90;;;;;;5115912;28;20173;-45
2022/01/08 05:22:59;;;;;;;56.88;12.13;;;2.50;99.90;;;;;;5115849;28;20172;-46
2022/01/08 05:25:25;;;;;;;20.90;9.15;;;2.50;99.90;;;;;;5116104;28;20169;-46
2022/01/08 05:27:51;;;;;;;13.98;7.90;;;2.50;99.90;;;;;;5115458;28;20187;-45
2022/01/08 05:30:19;;;;;;;21.60;8.45;;;2.50;99.90;;;;;;5115454;28;20179;-46
2022/01/08 05:32:44;;;;;;;15.07;8.48;;;2.50;99.90;;;;;;5115307;28;20709;-46
2022/01/08 05:35:11;;;;;;;12.65;6.25;;;2.50;99.90;;;;;;5115624;28;20173;-46
2022/01/08 05:37:36;;;;;;;15.13;7.93;;;2.50;99.90;;;;;;5115285;28;20719;-45
2022/01/08 05:40:02;;;;;;;24.13;8.65;;;2.40;99.90;;;;;;5115510;28;20260;-46
2022/01/08 05:42:27;;;;;;;18.58;8.63;;;2.40;99.90;;;;;;5115495;28;20161;-46
2022/01/08 05:44:53;;;;;;;18.92;8.98;;;2.40;99.90;;;;;;5115456;28;20221;-44
2022/01/08 05:47:21;;;;;;;16.67;8.85;;;2.50;99.90;;;;;;5115171;28;20513;-44
2022/01/08 05:49:46;;;;;;;20.25;9.35;;;2.50;99.90;;;;;;5115316;28;20256;-44
2022/01/08 05:52:12;;;;;;;15.77;8.40;;;2.30;99.90;;;;;;5114977;28;20283;-44
2022/01/08 05:54:37;;;;;;;15.32;9.32;;;2.30;99.90;;;;;;5115094;28;20169;-44
2022/01/08 05:57:03;;;;;;;16.45;8.75;;;2.30;99.90;;;;;;5114931;28;20168;-46
2022/01/08 05:59:29;;;;;;;17.55;8.88;;;2.30;99.90;;;;;;5114932;28;20252;-44
2022/01/08 06:01:55;;;;;;;15.43;7.68;;;2.30;99.90;;;;;;5115153;28;20176;-45
2022/01/08 06:04:21;;;;;;;21.27;8.90;;;2.20;99.90;;;;;;5115047;28;20225;-44
2022/01/08 06:06:46;;;;;;;16.08;9.25;;;2.20;99.90;;;;;;5114829;28;20596;-44
2022/01/08 06:09:12;;;;;;;17.35;8.10;;;2.20;99.90;;;;;;5114470;28;20180;-45
2022/01/08 06:11:38;;;;;;;17.20;8.45;;;2.20;99.90;;;;;;5114526;28;20216;-44
2022/01/08 06:14:04;;;;;;;21.08;9.48;;;2.20;99.90;;;;;;5114882;28;20213;-44
2022/01/08 06:16:35;;;;;;;15.77;9.70;;;2.20;99.90;;;;;;5114547;28;20165;-55
2022/01/08 06:19:05;;;;;;;18.23;8.95;;;2.20;99.90;;;;;;5114488;28;20172;-47
2022/01/08 06:21:31;;;;;;;14.98;8.23;;;2.20;99.90;;;;;;5114701;28;20184;-46
2022/01/08 06:23:56;;;;;;;18.45;8.63;;;2.20;99.90;;;;;;5114733;28;20160;-46
2022/01/08 06:26:22;;;;;;;14.88;8.85;;;2.20;99.90;;;;;;5114400;28;20628;-45
2022/01/08 06:28:49;;;;;;;12.93;7.28;;;2.20;99.90;;;;;;5114306;28;20168;-47
2022/01/08 06:31:15;;;;;;;15.07;8.70;;;2.20;99.90;;;;;;5114566;28;20169;-46
2022/01/08 06:33:41;;;;;;;11.48;8.52;;;2.20;99.90;;;;;;5114263;28;20160;-47
2022/01/08 06:36:06;;;;;;;18.95;9.07;;;2.20;99.90;;;;;;5114217;28;20175;-46
2022/01/08 06:38:32;;;;;;;19.60;9.05;;;2.20;99.90;;;;;;5114129;28;20528;-47
2022/01/08 06:40:57;;;;;;;9.82;5.63;;;2.20;99.90;;;;;;5114440;28;20168;-47
2022/01/08 06:43:23;;;;;;;14.68;6.93;;;2.10;99.90;;;;;;5114060;28;20628;-46
2022/01/08 06:45:48;;;;;;;21.10;9.40;;;2.10;99.90;;;;;;5114035;28;20172;-44
2022/01/08 06:48:14;;;;;;;16.13;10.13;;;2.20;99.90;;;;;;5113953;28;20161;-46
2022/01/08 06:50:39;;;;;;;13.68;8.40;;;2.20;99.90;;;;;;5113869;28;20168;-47
2022/01/08 06:53:05;;;;;;;17.52;7.57;;;2.20;99.90;;;;;;5113488;28;20219;-48
2022/01/08 06:55:31;;;;;;;17.40;9.38;;;2.20;99.90;;;;;;5112978;28;20428;-48
2022/01/08 06:57:56;;;;;;;13.20;8.25;;;2.20;99.90;;;;;;5113497;28;20169;-48
2022/01/08 07:00:22;;;;;;;15.02;10.27;;;2.20;99.90;;;;;;5113500;28;20647;-47
2022/01/08 07:02:48;;;;;;;21.50;10.15;;;2.10;99.90;;;;;;5113036;28;20211;-47
2022/01/08 07:05:13;;;;;;;17.58;8.65;;;2.10;99.90;;;;;;5113127;28;20505;-47
2022/01/08 07:07:39;;;;;;;18.02;8.93;;;2.10;99.90;;;;;;5113315;28;20179;-47
2022/01/08 07:10:05;;;;;;;22.67;9.95;;;2.20;99.90;;;;;;5113177;28;20309;-47
2022/01/08 07:12:31;;;;;;;19.88;10.30;;;2.20;99.90;;;;;;5113083;28;20258;-48
2022/01/08 07:14:56;;;;;;;17.67;10.80;;;2.20;99.90;;;;;;5113725;28;20520;-47
2022/01/08 07:17:22;;;;;;;20.92;10.00;;;2.20;99.90;;;;;;5113283;28;20168;-48
2022/01/08 07:19:47;;;;;;;16.00;9.45;;;2.20;99.90;;;;;;5113492;28;20251;-48
2022/01/08 07:22:13;;;;;;;18.40;9.98;;;2.20;99.90;;;;;;5112456;28;20165;-46
2022/01/08 07:24:38;;;;;;;20.60;11.20;;;2.20;99.90;;;;;;5113144;28;20165;-47
2022/01/08 07:27:04;;;;;;;19.02;9.30;;;2.20;99.90;;;;;;5113138;28;20184;-47
2022/01/08 07:29:30;;;;;;;16.80;8.77;;;2.20;99.90;;;;;;5113423;28;20168;-48
2022/01/08 07:31:55;;;;;;;19.27;10.35;;;2.20;99.90;;;;;;5113612;28;20202;-48
2022/01/08 07:34:21;;;;;;;15.90;9.15;;;2.20;99.90;;;;;;5113050;28;20173;-47
2022/01/08 07:36:46;;;;;;;15.45;8.60;;;2.20;99.90;;;;;;5112980;28;20177;-48
2022/01/08 07:39:11;;;;;;;19.90;10.32;;;2.20;99.90;;;;;;5112984;28;20161;-49
2022/01/08 07:41:37;;;;;;;17.13;9.60;;;2.20;99.90;;;;;;5112991;28;20168;-48
2022/01/08 07:44:03;;;;;;;26.33;9.10;;;2.20;99.90;;;;;;5112931;28;20169;-50
2022/01/08 07:46:28;;;;;;;16.92;10.05;;;2.30;99.90;;;;;;5113296;28;20164;-49
2022/01/08 07:48:54;;;;;;;20.55;10.27;;;2.30;99.90;;;;;;5113208;28;20184;-49
2022/01/08 07:51:19;;;;;;;25.02;10.18;;;2.30;99.90;;;;;;5112749;28;20176;-50
2022/01/08 07:53:45;;;;;;;20.02;9.65;;;2.40;99.90;;;;;;5112787;28;20184;-48
2022/01/08 07:56:10;;;;;;;24.27;10.65;;;2.40;99.90;;;;;;5112732;28;20156;-48
2022/01/08 07:58:36;;;;;;;20.38;10.38;;;2.40;99.90;;;;;;5112652;28;20639;-49
2022/01/08 08:01:01;;;;;;;20.92;10.23;;;2.40;99.90;;;;;;5112214;28;20184;-48
2022/01/08 08:03:27;;;;;;;19.00;10.27;;;2.40;99.90;;;;;;5113126;28;20192;-50
2022/01/08 08:05:53;;;;;;;21.48;11.02;;;2.40;99.90;;;;;;5112075;28;20207;-48
2022/01/08 08:08:20;;;;;;;20.20;10.02;;;2.50;99.90;;;;;;5112854;28;20173;-48
2022/01/08 08:10:50;;;;;;;21.50;11.13;;;2.50;99.90;;;;;;5112235;28;20173;-49
2022/01/08 08:13:20;;;;;;;22.30;11.90;;;2.50;99.90;;;;;;5112338;28;20303;-48
2022/01/08 08:15:47;;;;;;;23.40;11.40;;;2.50;99.90;;;;;;5112462;28;20169;-49
2022/01/08 08:18:13;;;;;;;18.80;10.18;;;2.60;99.90;;;;;;5112735;28;20534;-49
2022/01/08 08:20:39;;;;;;;17.92;10.90;;;2.50;99.90;;;;;;5112457;28;20217;-49
2022/01/08 08:23:05;;;;;;;21.90;10.60;;;2.50;99.90;;;;;;5112434;28;20532;-49
2022/01/08 08:25:31;;;;;;;23.30;11.43;;;2.60;99.90;;;;;;5112373;28;20157;-49
2022/01/08 08:27:56;;;;;;;22.92;11.40;;;2.60;99.90;;;;;;5112797;28;20213;-49
2022/01/08 08:30:22;;;;;;;18.55;10.13;;;2.70;99.90;;;;;;5112345;28;20157;-49
2022/01/08 08:32:48;;;;;;;25.27;11.52;;;2.70;99.90;;;;;;5113182;28;20664;-49
2022/01/08 08:35:14;;;;;;;20.65;10.38;;;2.80;99.90;;;;;;5116583;28;20281;-49
2022/01/08 08:37:40;;;;;;;22.15;10.98;;;2.80;99.90;;;;;;5116471;28;20247;-48
2022/01/08 08:40:08;;;;;;;20.60;10.30;;;2.90;99.90;;;;;;5116710;28;20172;-48
2022/01/08 08:42:34;;;;;;;94.47;32.38;;;2.90;99.90;;;;;;5116674;28;20168;-48
2022/01/08 08:45:00;;;;;;;30.17;11.00;;;3.00;99.90;;;;;;5116438;28;20524;-48
2022/01/08 08:47:25;;;;;;;18.42;10.07;;;3.00;99.90;;;;;;5116736;28;20169;-49
2022/01/08 08:49:51;;;;;;;23.42;10.90;;;3.00;99.90;;;;;;5098099;28;20628;-48
2022/01/08 08:52:16;;;;;;;20.15;10.25;;;3.00;99.90;;;;;;5116183;28;20561;-49
2022/01/08 08:54:43;;;;;;;16.67;7.18;;;3.10;99.90;;;;;;5116093;28;20171;-48
2022/01/08 08:57:10;;;;;;;18.60;10.07;;;3.10;99.90;;;;;;5116330;28;20168;-49
2022/01/08 08:59:36;;;;;;;18.58;10.20;;;3.10;99.90;;;;;;5115989;28;20196;-48
2022/01/08 09:02:02;;;;;;;15.93;8.43;;;3.10;99.90;;;;;;5115652;28;20168;-48
2022/01/08 09:04:28;;;;;;;25.55;10.00;;;3.10;99.90;;;;;;5097984;28;20172;-48
2022/01/08 09:06:53;;;;;;;23.40;10.98;;;3.10;99.90;;;;;;5115662;28;20169;-48
2022/01/08 09:09:20;;;;;;;25.88;12.48;;;3.10;99.90;;;;;;5115777;28;20253;-48
2022/01/08 09:11:45;;;;;;;24.98;10.10;;;3.10;99.90;;;;;;5115721;28;20226;-48
2022/01/08 09:14:11;;;;;;;20.70;10.57;;;3.20;99.90;;;;;;5115706;28;20165;-48
2022/01/08 09:16:37;;;;;;;22.10;9.88;;;3.20;99.90;;;;;;5115406;28;20636;-48
2022/01/08 09:19:03;;;;;;;19.35;10.38;;;3.30;99.90;;;;;;5115662;28;20165;-49
2022/01/08 09:21:29;;;;;;;18.90;10.55;;;3.30;99.90;;;;;;5115304;28;20631;-48
2022/01/08 09:23:55;;;;;;;21.77;10.50;;;3.30;99.90;;;;;;5115853;28;20173;-48
2022/01/08 09:26:20;;;;;;;16.85;9.15;;;3.30;99.90;;;;;;5115262;28;20255;-47
2022/01/08 09:28:46;;;;;;;20.13;9.20;;;3.30;99.90;;;;;;5115500;28;20172;-49
2022/01/08 09:31:12;;;;;;;21.20;9.18;;;3.40;99.90;;;;;;5115060;28;20230;-48
2022/01/08 09:33:38;;;;;;;23.60;9.10;;;3.40;99.90;;;;;;5115578;28;20173;-47
2022/01/08 09:36:05;;;;;;;17.30;9.25;;;3.40;99.90;;;;;;5115082;28;20625;-48
2022/01/08 09:38:31;;;;;;;18.00;9.18;;;3.50;99.90;;;;;;5115279;28;20572;-49
2022/01/08 09:40:56;;;;;;;18.75;9.02;;;3.50;99.90;;;;;;5115276;28;20156;-49
2022/01/08 09:43:22;;;;;;;21.38;9.00;;;3.60;99.90;;;;;;5115199;28;20252;-49
2022/01/08 09:45:48;;;;;;;13.57;6.25;;;3.50;99.90;;;;;;5114100;28;20165;-48
2022/01/08 09:48:14;;;;;;;14.18;7.60;;;3.50;99.90;;;;;;5096743;28;20176;-47
2022/01/08 09:50:41;;;;;;;14.02;7.25;;;3.50;99.90;;;;;;5114951;28;20244;-47
2022/01/08 09:53:07;;;;;;;12.55;6.38;;;3.60;99.90;;;;;;5114843;28;20671;-47
2022/01/08 09:55:32;;;;;;;12.35;6.28;;;3.60;99.90;;;;;;5115007;28;20164;-48
2022/01/08 09:57:59;;;;;;;16.38;7.55;;;3.70;99.90;;;;;;5115271;28;20229;-47
2022/01/08 10:00:25;;;;;;;13.65;7.32;;;3.60;99.90;;;;;;5115126;28;20157;-47
2022/01/08 10:02:51;;;;;;;15.88;6.78;;;3.70;99.90;;;;;;5113366;28;20491;-50
2022/01/08 10:05:17;;;;;;;16.35;7.25;;;3.70;99.90;;;;;;5113712;28;20168;-48
2022/01/08 10:07:57;;;;;;;24.48;7.28;;;3.70;99.90;;;;;;5113091;28;20165;-48
2022/01/08 10:10:25;;;;;;;12.88;7.30;;;3.80;99.90;;;;;;5113206;28;20168;-49
2022/01/08 10:12:55;;;;;;;14.60;6.50;;;3.80;99.90;;;;;;5112886;28;20224;-48
2022/01/08 10:18:33;;;;;;;13.43;6.85;;;3.80;99.90;;;;;;5114547;28;20230;-48
2022/01/08 10:21:13;;;;;;;18.60;7.95;;;3.90;99.90;;;;;;5115035;28;20172;-48
2022/01/08 10:23:43;;;;;;;18.63;8.65;;;3.90;99.90;;;;;;5114406;28;20164;-48
2022/01/08 10:26:10;;;;;;;15.50;9.13;;;4.00;99.90;;;;;;5114725;28;20176;-47
2022/01/08 10:28:42;;;;;;;13.65;8.18;;;4.00;99.90;;;;;;5095805;28;20165;-49
2022/01/08 10:31:25;;;;;;;14.65;8.45;;;4.10;99.90;;;;;;5114114;28;20255;-47
2022/01/08 10:34:02;;;;;;;19.35;8.18;;;4.10;99.90;;;;;;5114023;28;20187;-48
2022/01/08 10:36:36;;;;;;;12.70;6.13;;;4.10;99.90;;;;;;5114572;28;20217;-47
2022/01/08 10:39:11;;;;;;;16.67;6.38;;;4.10;99.90;;;;;;5095264;28;20616;-47
2022/01/08 10:41:45;;;;;;;6.72;4.30;;;4.10;99.90;;;;;;5113664;28;20221;-47
2022/01/08 10:44:22;;;;;;;14.88;6.10;;;4.10;99.90;;;;;;5113697;28;20632;-48
2022/01/08 10:46:59;;;;;;;20.38;10.48;;;4.20;99.90;;;;;;5113960;28;20580;-48
2022/01/08 10:49:31;;;;;;;13.60;6.15;;;4.20;99.90;;;;;;5113384;28;20624;-48
2022/01/08 10:52:00;;;;;;;15.32;5.15;;;4.30;99.90;;;;;;5111942;28;20196;-47
2022/01/08 10:54:27;;;;;;;12.90;6.25;;;4.40;99.90;;;;;;5113712;28;20183;-48
2022/01/08 10:56:59;;;;;;;12.32;5.55;;;4.50;99.90;;;;;;5113664;28;20177;-48
2022/01/08 10:59:26;;;;;;;11.25;5.15;;;4.50;99.90;;;;;;5112052;28;20165;-47
2022/01/08 11:02:09;;;;;;;9.68;5.43;;;4.50;99.90;;;;;;5112143;28;20251;-48
2022/01/08 11:04:51;;;;;;;13.05;7.10;;;4.60;99.90;;;;;;5112066;28;20203;-48
2022/01/08 11:07:18;;;;;;;16.58;6.55;;;4.70;99.90;;;;;;5112254;28;20175;-49
2022/01/08 11:09:49;;;;;;;12.60;6.47;;;4.80;99.90;;;;;;5111927;28;20175;-47
2022/01/08 11:12:22;;;;;;;12.93;5.18;;;4.80;99.90;;;;;;5111677;28;20307;-46
2022/01/08 11:17:24;;;;;;;9.32;4.20;;;4.80;99.90;;;;;;5111799;28;20569;-47
2022/01/08 11:20:02;;;;;;;7.68;3.72;;;4.80;99.90;;;;;;5111929;28;20164;-48
2022/01/08 11:22:30;;;;;;;7.03;3.67;;;4.80;99.90;;;;;;5093783;28;20568;-47
2022/01/08 11:25:00;;;;;;;8.07;3.85;;;4.70;99.90;;;;;;5111934;28;20156;-48
2022/01/08 11:28:08;;;;;;;10.52;4.53;;;4.80;99.90;;;;;;5111907;28;20636;-47
2022/01/08 11:30:57;;;;;;;13.30;4.57;;;4.90;99.90;;;;;;5110112;28;20233;-49
2022/01/08 11:33:28;;;;;;;7.00;2.88;;;4.90;99.90;;;;;;5101726;28;20675;-48
2022/01/08 11:35:56;;;;;;;5.15;3.30;;;5.00;99.90;;;;;;5111634;28;20266;-47
2022/01/08 11:38:23;;;;;;;6.60;5.10;;;5.00;99.90;;;;;;5112157;28;20558;-48
2022/01/08 11:40:51;;;;;;;8.13;4.97;;;5.00;99.90;;;;;;5112118;28;20173;-48
2022/01/08 11:43:21;;;;;;;10.27;4.13;;;5.00;99.90;;;;;;5111637;28;20217;-49
2022/01/08 11:45:57;;;;;;;15.85;9.13;;;5.00;99.90;;;;;;5112749;28;20176;-49
2022/01/08 11:48:44;;;;;;;12.00;4.53;;;4.90;99.90;;;;;;5112403;28;20172;-48
2022/01/08 11:51:16;;;;;;;8.95;4.95;;;4.90;99.90;;;;;;5112846;28;20250;-48
2022/01/08 11:53:53;;;;;;;7.93;3.60;;;4.90;99.90;;;;;;5111772;28;20172;-47
2022/01/08 11:56:27;;;;;;;13.13;5.68;;;4.90;99.90;;;;;;5100901;28;20172;-48
2022/01/08 11:59:14;;;;;;;13.18;5.93;;;5.00;99.90;;;;;;5109418;28;20172;-48
2022/01/08 12:01:43;;;;;;;21.55;7.85;;;4.90;99.90;;;;;;5098591;28;20291;-46
2022/01/08 12:04:24;;;;;;;9.77;4.70;;;5.00;99.90;;;;;;5107358;28;20226;-48
2022/01/08 12:06:50;;;;;;;7.68;3.95;;;5.00;99.90;;;;;;5093819;28;20177;-49
2022/01/08 12:09:22;;;;;;;7.68;3.47;;;5.10;99.90;;;;;;5108607;28;20233;-49
2022/01/08 12:11:52;;;;;;;6.85;2.75;;;5.10;99.90;;;;;;5106440;28;20226;-47
2022/01/08 12:14:26;;;;;;;20.98;12.13;;;5.00;99.90;;;;;;5073056;28;20206;-48
2022/01/08 12:16:56;;;;;;;17.70;8.35;;;5.10;99.90;;;;;;5091450;28;20704;-48
2022/01/08 12:19:36;;;;;;;7.90;3.97;;;5.10;99.90;;;;;;5091946;28;20659;-49
2022/01/08 12:22:20;;;;;;;7.35;3.55;;;5.10;99.90;;;;;;5110521;28;20164;-48
2022/01/08 12:24:53;;;;;;;17.92;10.15;;;5.10;99.90;;;;;;5109041;28;20169;-48
2022/01/08 12:27:34;;;;;;;9.05;2.75;;;5.00;99.90;;;;;;5110972;28;20185;-48
2022/01/08 12:30:23;;;;;;;12.40;5.05;;;4.90;99.90;;;;;;5108764;28;20199;-49
2022/01/08 12:32:55;;;;;;;11.35;4.97;;;4.90;99.90;;;;;;5097108;28;20578;-49
2022/01/08 12:35:34;;;;;;;10.43;4.28;;;4.90;99.90;;;;;;5110065;28;20165;-49
2022/01/08 12:38:04;;;;;;;17.88;9.05;;;4.90;99.90;;;;;;5109942;28;20172;-49
2022/01/08 12:40:42;;;;;;;16.85;8.00;;;5.00;99.90;;;;;;5080497;28;20607;-49
2022/01/08 12:43:31;;;;;;;17.38;9.35;;;5.00;99.90;;;;;;5082679;28;20201;-49
2022/01/08 12:46:12;;;;;;;8.43;3.65;;;4.90;99.90;;;;;;5103485;28;20169;-49
2022/01/08 12:48:37;;;;;;;5.95;3.67;;;5.00;99.90;;;;;;5106076;28;20660;-48
2022/01/08 12:51:06;;;;;;;5.93;3.40;;;4.90;99.90;;;;;;5104621;28;20267;-49
2022/01/08 12:53:34;;;;;;;6.97;4.63;;;4.90;99.90;;;;;;5091022;28;20204;-49
2022/01/08 12:55:59;;;;;;;11.43;6.80;;;5.00;99.90;;;;;;5100581;28;20176;-49
2022/01/08 12:58:35;;;;;;;11.15;5.13;;;4.90;99.90;;;;;;5111793;28;20214;-47
2022/01/08 13:01:06;;;;;;;6.30;2.97;;;4.90;99.90;;;;;;5107548;28;20263;-47
2022/01/08 13:03:47;;;;;;;7.95;2.90;;;4.80;99.90;;;;;;5091399;28;20201;-50
2022/01/08 13:06:12;;;;;;;8.27;4.80;;;4.70;99.90;;;;;;5092736;28;20698;-49
2022/01/08 13:08:39;;;;;;;12.85;3.55;;;4.70;99.90;;;;;;5108582;28;20169;-49
2022/01/08 13:11:07;;;;;;;3.38;2.67;;;4.80;99.90;;;;;;5097726;28;20173;-48
2022/01/08 13:13:43;;;;;;;7.80;2.97;;;4.60;99.90;;;;;;5091856;28;20239;-49
2022/01/08 13:16:12;;;;;;;9.30;3.05;;;4.70;99.90;;;;;;5091579;28;20252;-48
2022/01/08 13:18:39;;;;;;;7.20;4.00;;;4.60;99.90;;;;;;5101824;28;20180;-48